sensor_id;sensor_type;location;lat;lon;timestamp;temperature;humidity
14411;DHT22;7290;50.854;4.354;2022-11-20T00:00:01;6.00;99.90
14411;DHT22;7290;50.854;4.354;2022-11-20T00:02:27;6.10;99.90
14411;DHT22;7290;50.854;4.354;2022-11-20T00:04:53;6.00;99.90
14411;DHT22;7290;50.854;4.354;2022-11-20T00:07:19;6.00;99.90
14411;DHT22;7290;50.854;4.354;2022-11-20T00:09:45;6.00;99.90
14411;DHT22;7290;50.854;4.354;2022-11-20T00:12:11;5.90;99.90
14411;DHT22;7290;50.854;4.354;2022-11-20T00:14:37;6.00;99.90
14411;DHT22;7290;50.854;4.354;2022-11-20T00:17:04;6.00;99.90
14411;DHT22;7290;50.854;4.354;2022-11-20T00:19:30;6.00;99.90
14411;DHT22;7290;50.854;4.354;2022-11-20T00:21:56;6.00;99.90
14411;DHT22;7290;50.854;4.354;2022-11-20T00:24:23;6.00;99.90
14411;DHT22;7290;50.854;4.354;2022-11-20T00:26:49;6.00;99.90
14411;DHT22;7290;50.854;4.354;2022-11-20T00:29:15;6.10;99.90
14411;DHT22;7290;50.854;4.354;2022-11-20T00:31:41;6.10;99.90
14411;DHT22;7290;50.854;4.354;2022-11-20T00:34:09;6.10;99.90
14411;DHT22;7290;50.854;4.354;2022-11-20T00:36:35;6.20;99.90
14411;DHT22;7290;50.854;4.354;2022-11-20T00:39:02;6.10;99.90
14411;DHT22;7290;50.854;4.354;2022-11-20T00:41:29;6.10;99.90
14411;DHT22;7290;50.854;4.354;2022-11-20T00:43:56;6.10;99.90
14411;DHT22;7290;50.854;4.354;2022-11-20T00:46:23;6.20;99.90
14411;DHT22;7290;50.854;4.354;2022-11-20T00:48:50;6.20;99.90
14411;DHT22;7290;50.854;4.354;2022-11-20T00:51:19;6.10;99.90
14411;DHT22;7290;50.854;4.354;2022-11-20T00:53:46;6.10;99.90
14411;DHT22;7290;50.854;4.354;2022-11-20T00:56:14;6.10;99.90
14411;DHT22;7290;50.854;4.354;2022-11-20T00:58:42;6.10;99.90
14411;DHT22;7290;50.854;4.354;2022-11-20T01:01:09;6.10;99.90
14411;DHT22;7290;50.854;4.354;2022-11-20T01:03:38;6.10;99.90
14411;DHT22;7290;50.854;4.354;2022-11-20T01:06:07;6.10;99.90
14411;DHT22;7290;50.854;4.354;2022-11-20T01:08:35;6.00;99.90
14411;DHT22;7290;50.854;4.354;2022-11-20T01:11:03;5.90;99.90
14411;DHT22;7290;50.854;4.354;2022-11-20T01:13:30;6.00;99.90
14411;DHT22;7290;50.854;4.354;2022-11-20T01:16:08;6.00;99.90
14411;DHT22;7290;50.854;4.354;2022-11-20T01:18:37;6.00;99.90
14411;DHT22;7290;50.854;4.354;2022-11-20T01:21:05;5.90;99.90
14411;DHT22;7290;50.854;4.354;2022-11-20T01:23:32;6.00;99.90
14411;DHT22;7290;50.854;4.354;2022-11-20T01:26:00;6.10;99.90
14411;DHT22;7290;50.854;4.354;2022-11-20T01:28:28;6.10;99.90
14411;DHT22;7290;50.854;4.354;2022-11-20T01:30:54;6.20;99.90
14411;DHT22;7290;50.854;4.354;2022-11-20T01:33:20;6.20;99.90
14411;DHT22;7290;50.854;4.354;2022-11-20T01:35:46;6.20;99.90
14411;DHT22;7290;50.854;4.354;2022-11-20T01:38:12;6.00;99.90
14411;DHT22;7290;50.854;4.354;2022-11-20T01:40:38;5.90;99.90
14411;DHT22;7290;50.854;4.354;2022-11-20T01:43:14;6.00;99.90
14411;DHT22;7290;50.854;4.354;2022-11-20T01:46:04;6.00;99.90
14411;DHT22;7290;50.854;4.354;2022-11-20T01:48:35;6.00;99.90
14411;DHT22;7290;50.854;4.354;2022-11-20T01:51:04;6.10;99.90
14411;DHT22;7290;50.854;4.354;2022-11-20T01:53:34;6.10;99.90
14411;DHT22;7290;50.854;4.354;2022-11-20T01:56:04;6.30;99.90
14411;DHT22;7290;50.854;4.354;2022-11-20T01:58:34;6.20;99.90
14411;DHT22;7290;50.854;4.354;2022-11-20T02:01:02;6.20;99.90
14411;DHT22;7290;50.854;4.354;2022-11-20T02:03:28;6.20;99.90
14411;DHT22;7290;50.854;4.354;2022-11-20T02:05:59;6.10;99.90
14411;DHT22;7290;50.854;4.354;2022-11-20T02:08:27;6.10;99.90
14411;DHT22;7290;50.854;4.354;2022-11-20T02:10:53;6.10;99.90
14411;DHT22;7290;50.854;4.354;2022-11-20T02:13:19;6.10;99.90
14411;DHT22;7290;50.854;4.354;2022-11-20T02:16:16;6.10;99.90
14411;DHT22;7290;50.854;4.354;2022-11-20T02:18:44;6.00;99.90
14411;DHT22;7290;50.854;4.354;2022-11-20T02:21:18;6.00;99.90
14411;DHT22;7290;50.854;4.354;2022-11-20T02:24:09;6.10;99.90
14411;DHT22;7290;50.854;4.354;2022-11-20T02:26:41;6.00;99.90
14411;DHT22;7290;50.854;4.354;2022-11-20T02:29:08;6.00;99.90
14411;DHT22;7290;50.854;4.354;2022-11-20T02:31:40;5.90;99.90
14411;DHT22;7290;50.854;4.354;2022-11-20T02:34:06;6.00;99.90
14411;DHT22;7290;50.854;4.354;2022-11-20T02:36:33;5.80;99.90
14411;DHT22;7290;50.854;4.354;2022-11-20T02:39:00;5.70;99.90
14411;DHT22;7290;50.854;4.354;2022-11-20T02:41:32;5.70;99.90
14411;DHT22;7290;50.854;4.354;2022-11-20T02:43:58;5.70;99.90
14411;DHT22;7290;50.854;4.354;2022-11-20T02:46:24;5.90;99.90
14411;DHT22;7290;50.854;4.354;2022-11-20T02:48:51;5.90;99.90
14411;DHT22;7290;50.854;4.354;2022-11-20T02:51:17;5.90;99.90
14411;DHT22;7290;50.854;4.354;2022-11-20T02:53:43;5.90;99.90
14411;DHT22;7290;50.854;4.354;2022-11-20T02:56:10;5.90;99.90
14411;DHT22;7290;50.854;4.354;2022-11-20T02:58:37;5.80;99.90
14411;DHT22;7290;50.854;4.354;2022-11-20T03:01:03;5.70;99.90
14411;DHT22;7290;50.854;4.354;2022-11-20T03:03:30;5.60;99.90
14411;DHT22;7290;50.854;4.354;2022-11-20T03:05:58;5.60;99.90
14411;DHT22;7290;50.854;4.354;2022-11-20T03:08:25;5.60;99.90
14411;DHT22;7290;50.854;4.354;2022-11-20T03:10:51;5.60;99.90
14411;DHT22;7290;50.854;4.354;2022-11-20T03:13:18;5.70;99.90
14411;DHT22;7290;50.854;4.354;2022-11-20T03:15:44;5.70;99.90
14411;DHT22;7290;50.854;4.354;2022-11-20T03:18:10;5.80;99.90
14411;DHT22;7290;50.854;4.354;2022-11-20T03:20:39;5.90;99.90
14411;DHT22;7290;50.854;4.354;2022-11-20T03:23:05;6.00;99.90
14411;DHT22;7290;50.854;4.354;2022-11-20T03:25:31;6.00;99.90
14411;DHT22;7290;50.854;4.354;2022-11-20T03:27:57;6.00;99.90
14411;DHT22;7290;50.854;4.354;2022-11-20T03:30:23;6.00;99.90
14411;DHT22;7290;50.854;4.354;2022-11-20T03:32:53;5.90;99.90
14411;DHT22;7290;50.854;4.354;2022-11-20T03:35:19;5.90;99.90
14411;DHT22;7290;50.854;4.354;2022-11-20T03:37:45;5.90;99.90
14411;DHT22;7290;50.854;4.354;2022-11-20T03:40:12;6.00;99.90
14411;DHT22;7290;50.854;4.354;2022-11-20T03:42:38;6.00;99.90
14411;DHT22;7290;50.854;4.354;2022-11-20T03:45:11;5.90;99.90
14411;DHT22;7290;50.854;4.354;2022-11-20T03:47:37;5.80;99.90
14411;DHT22;7290;50.854;4.354;2022-11-20T03:50:05;5.70;99.90
14411;DHT22;7290;50.854;4.354;2022-11-20T03:52:31;5.80;99.90
14411;DHT22;7290;50.854;4.354;2022-11-20T03:54:57;5.80;99.90
14411;DHT22;7290;50.854;4.354;2022-11-20T03:57:24;6.00;99.90
14411;DHT22;7290;50.854;4.354;2022-11-20T03:59:51;6.10;99.90
14411;DHT22;7290;50.854;4.354;2022-11-20T04:02:17;6.00;99.90
14411;DHT22;7290;50.854;4.354;2022-11-20T04:04:43;5.90;99.90
14411;DHT22;7290;50.854;4.354;2022-11-20T04:07:09;6.10;99.90
14411;DHT22;7290;50.854;4.354;2022-11-20T04:09:36;6.20;99.90
14411;DHT22;7290;50.854;4.354;2022-11-20T04:12:02;6.10;99.90
14411;DHT22;7290;50.854;4.354;2022-11-20T04:14:28;6.00;99.90
14411;DHT22;7290;50.854;4.354;2022-11-20T04:16:54;6.10;99.90
14411;DHT22;7290;50.854;4.354;2022-11-20T04:19:20;6.20;99.90
14411;DHT22;7290;50.854;4.354;2022-11-20T04:21:46;6.20;99.90
14411;DHT22;7290;50.854;4.354;2022-11-20T04:24:13;6.10;99.90
14411;DHT22;7290;50.854;4.354;2022-11-20T04:26:39;6.00;99.90
14411;DHT22;7290;50.854;4.354;2022-11-20T04:29:05;6.10;99.90
14411;DHT22;7290;50.854;4.354;2022-11-20T04:31:33;6.20;99.90
14411;DHT22;7290;50.854;4.354;2022-11-20T04:34:00;6.20;99.90
14411;DHT22;7290;50.854;4.354;2022-11-20T04:36:28;6.20;99.90
14411;DHT22;7290;50.854;4.354;2022-11-20T04:38:55;6.10;99.90
14411;DHT22;7290;50.854;4.354;2022-11-20T04:41:23;6.10;99.90
14411;DHT22;7290;50.854;4.354;2022-11-20T04:43:53;6.20;99.90
14411;DHT22;7290;50.854;4.354;2022-11-20T04:46:25;6.10;99.90
14411;DHT22;7290;50.854;4.354;2022-11-20T04:48:51;6.10;99.90
14411;DHT22;7290;50.854;4.354;2022-11-20T04:51:18;6.10;99.90
14411;DHT22;7290;50.854;4.354;2022-11-20T04:53:44;6.20;99.90
14411;DHT22;7290;50.854;4.354;2022-11-20T04:56:11;6.30;99.90
14411;DHT22;7290;50.854;4.354;2022-11-20T04:58:39;6.40;99.90
14411;DHT22;7290;50.854;4.354;2022-11-20T05:01:06;6.50;99.90
14411;DHT22;7290;50.854;4.354;2022-11-20T05:03:32;6.50;99.90
14411;DHT22;7290;50.854;4.354;2022-11-20T05:06:00;6.50;99.90
14411;DHT22;7290;50.854;4.354;2022-11-20T05:08:27;6.50;99.90
14411;DHT22;7290;50.854;4.354;2022-11-20T05:10:53;6.40;99.90
14411;DHT22;7290;50.854;4.354;2022-11-20T05:13:19;6.40;99.90
14411;DHT22;7290;50.854;4.354;2022-11-20T05:15:46;6.50;99.90
14411;DHT22;7290;50.854;4.354;2022-11-20T05:18:12;6.60;99.90
14411;DHT22;7290;50.854;4.354;2022-11-20T05:20:39;6.70;99.90
14411;DHT22;7290;50.854;4.354;2022-11-20T05:23:05;6.70;99.90
14411;DHT22;7290;50.854;4.354;2022-11-20T05:25:31;6.60;99.90
14411;DHT22;7290;50.854;4.354;2022-11-20T05:27:57;6.60;99.90
14411;DHT22;7290;50.854;4.354;2022-11-20T05:30:23;6.50;99.90
14411;DHT22;7290;50.854;4.354;2022-11-20T05:32:50;6.40;99.90
14411;DHT22;7290;50.854;4.354;2022-11-20T05:35:16;6.40;99.90
14411;DHT22;7290;50.854;4.354;2022-11-20T05:37:42;6.40;99.90
14411;DHT22;7290;50.854;4.354;2022-11-20T05:40:10;6.40;99.90
14411;DHT22;7290;50.854;4.354;2022-11-20T05:42:36;6.50;99.90
14411;DHT22;7290;50.854;4.354;2022-11-20T05:45:04;6.60;99.90
14411;DHT22;7290;50.854;4.354;2022-11-20T05:47:33;6.60;99.90
14411;DHT22;7290;50.854;4.354;2022-11-20T05:50:01;6.50;99.90
14411;DHT22;7290;50.854;4.354;2022-11-20T05:52:28;6.60;99.90
14411;DHT22;7290;50.854;4.354;2022-11-20T05:54:54;6.30;99.90
14411;DHT22;7290;50.854;4.354;2022-11-20T05:57:20;6.40;99.90
14411;DHT22;7290;50.854;4.354;2022-11-20T05:59:46;6.40;99.90
14411;DHT22;7290;50.854;4.354;2022-11-20T06:02:12;6.20;99.90
14411;DHT22;7290;50.854;4.354;2022-11-20T06:04:38;6.00;99.90
14411;DHT22;7290;50.854;4.354;2022-11-20T06:07:07;6.10;99.90
14411;DHT22;7290;50.854;4.354;2022-11-20T06:09:34;6.10;99.90
14411;DHT22;7290;50.854;4.354;2022-11-20T06:12:00;6.20;99.90
14411;DHT22;7290;50.854;4.354;2022-11-20T06:14:26;6.30;99.90
14411;DHT22;7290;50.854;4.354;2022-11-20T06:16:52;6.20;99.90
14411;DHT22;7290;50.854;4.354;2022-11-20T06:19:18;6.20;99.90
14411;DHT22;7290;50.854;4.354;2022-11-20T06:21:45;6.30;99.90
14411;DHT22;7290;50.854;4.354;2022-11-20T06:24:11;6.50;99.90
14411;DHT22;7290;50.854;4.354;2022-11-20T06:26:37;6.60;99.90
14411;DHT22;7290;50.854;4.354;2022-11-20T06:29:04;6.60;99.90
14411;DHT22;7290;50.854;4.354;2022-11-20T06:31:30;6.60;99.90
14411;DHT22;7290;50.854;4.354;2022-11-20T06:33:58;6.50;99.90
14411;DHT22;7290;50.854;4.354;2022-11-20T06:36:24;6.60;99.90
14411;DHT22;7290;50.854;4.354;2022-11-20T06:38:51;6.60;99.90
14411;DHT22;7290;50.854;4.354;2022-11-20T06:41:19;6.60;99.90
14411;DHT22;7290;50.854;4.354;2022-11-20T06:43:46;6.60;99.90
14411;DHT22;7290;50.854;4.354;2022-11-20T06:46:13;6.80;99.90
14411;DHT22;7290;50.854;4.354;2022-11-20T06:48:40;6.90;99.90
14411;DHT22;7290;50.854;4.354;2022-11-20T06:51:07;6.80;99.90
14411;DHT22;7290;50.854;4.354;2022-11-20T06:53:35;6.70;99.90
14411;DHT22;7290;50.854;4.354;2022-11-20T06:56:02;6.60;99.90
14411;DHT22;7290;50.854;4.354;2022-11-20T06:58:30;6.60;99.90
14411;DHT22;7290;50.854;4.354;2022-11-20T07:00:58;6.60;99.90
14411;DHT22;7290;50.854;4.354;2022-11-20T07:03:24;6.70;99.90
14411;DHT22;7290;50.854;4.354;2022-11-20T07:05:51;6.70;99.90
14411;DHT22;7290;50.854;4.354;2022-11-20T07:08:17;6.70;99.90
14411;DHT22;7290;50.854;4.354;2022-11-20T07:10:43;6.80;99.90
14411;DHT22;7290;50.854;4.354;2022-11-20T07:13:09;6.60;99.90
14411;DHT22;7290;50.854;4.354;2022-11-20T07:15:35;6.60;99.90
14411;DHT22;7290;50.854;4.354;2022-11-20T07:18:02;6.50;99.90
14411;DHT22;7290;50.854;4.354;2022-11-20T07:20:28;6.50;99.90
14411;DHT22;7290;50.854;4.354;2022-11-20T07:22:54;6.60;99.90
14411;DHT22;7290;50.854;4.354;2022-11-20T07:25:20;6.30;99.90
14411;DHT22;7290;50.854;4.354;2022-11-20T07:27:46;6.40;99.90
14411;DHT22;7290;50.854;4.354;2022-11-20T07:30:13;6.60;99.90
14411;DHT22;7290;50.854;4.354;2022-11-20T07:32:40;6.80;99.90
14411;DHT22;7290;50.854;4.354;2022-11-20T07:35:07;7.00;99.90
14411;DHT22;7290;50.854;4.354;2022-11-20T07:37:34;7.10;99.90
14411;DHT22;7290;50.854;4.354;2022-11-20T07:40:00;7.10;99.90
14411;DHT22;7290;50.854;4.354;2022-11-20T07:42:26;7.20;99.90
14411;DHT22;7290;50.854;4.354;2022-11-20T07:44:52;7.30;99.90
14411;DHT22;7290;50.854;4.354;2022-11-20T07:47:19;7.20;99.90
14411;DHT22;7290;50.854;4.354;2022-11-20T07:49:46;7.20;99.90
14411;DHT22;7290;50.854;4.354;2022-11-20T07:52:12;7.10;99.90
14411;DHT22;7290;50.854;4.354;2022-11-20T07:54:38;7.00;99.90
14411;DHT22;7290;50.854;4.354;2022-11-20T07:57:04;6.90;99.90
14411;DHT22;7290;50.854;4.354;2022-11-20T07:59:30;6.80;99.90
14411;DHT22;7290;50.854;4.354;2022-11-20T08:01:56;6.80;99.90
14411;DHT22;7290;50.854;4.354;2022-11-20T08:04:22;6.90;99.90
14411;DHT22;7290;50.854;4.354;2022-11-20T08:06:49;7.00;99.90
14411;DHT22;7290;50.854;4.354;2022-11-20T08:09:15;6.70;99.90
14411;DHT22;7290;50.854;4.354;2022-11-20T08:11:41;6.80;99.90
14411;DHT22;7290;50.854;4.354;2022-11-20T08:14:25;7.00;99.90
14411;DHT22;7290;50.854;4.354;2022-11-20T08:16:53;6.90;99.90
14411;DHT22;7290;50.854;4.354;2022-11-20T08:19:20;6.90;99.90
14411;DHT22;7290;50.854;4.354;2022-11-20T08:21:46;6.80;99.90
14411;DHT22;7290;50.854;4.354;2022-11-20T08:24:13;6.80;99.90
14411;DHT22;7290;50.854;4.354;2022-11-20T08:26:40;7.00;99.90
14411;DHT22;7290;50.854;4.354;2022-11-20T08:29:06;7.10;99.90
14411;DHT22;7290;50.854;4.354;2022-11-20T08:31:33;7.10;99.90
14411;DHT22;7290;50.854;4.354;2022-11-20T08:33:59;7.30;99.90
14411;DHT22;7290;50.854;4.354;2022-11-20T08:36:25;7.40;99.90
14411;DHT22;7290;50.854;4.354;2022-11-20T08:38:55;7.50;99.90
14411;DHT22;7290;50.854;4.354;2022-11-20T08:41:22;7.60;99.90
14411;DHT22;7290;50.854;4.354;2022-11-20T08:43:53;7.50;99.90
14411;DHT22;7290;50.854;4.354;2022-11-20T08:46:21;7.20;99.90
14411;DHT22;7290;50.854;4.354;2022-11-20T08:48:48;7.20;99.90
14411;DHT22;7290;50.854;4.354;2022-11-20T08:51:14;7.10;99.90
14411;DHT22;7290;50.854;4.354;2022-11-20T08:53:41;7.20;99.90
14411;DHT22;7290;50.854;4.354;2022-11-20T08:56:08;7.10;99.90
14411;DHT22;7290;50.854;4.354;2022-11-20T08:58:36;7.30;99.90
14411;DHT22;7290;50.854;4.354;2022-11-20T09:01:09;7.20;99.90
14411;DHT22;7290;50.854;4.354;2022-11-20T09:03:35;7.40;99.90
14411;DHT22;7290;50.854;4.354;2022-11-20T09:06:05;7.50;99.90
14411;DHT22;7290;50.854;4.354;2022-11-20T09:08:32;7.60;99.90
14411;DHT22;7290;50.854;4.354;2022-11-20T09:10:59;7.70;99.90
14411;DHT22;7290;50.854;4.354;2022-11-20T09:13:29;7.80;99.90
14411;DHT22;7290;50.854;4.354;2022-11-20T09:15:58;8.00;99.90
14411;DHT22;7290;50.854;4.354;2022-11-20T09:18:26;8.20;99.90
14411;DHT22;7290;50.854;4.354;2022-11-20T09:20:56;8.30;99.90
14411;DHT22;7290;50.854;4.354;2022-11-20T09:23:22;8.40;99.90
14411;DHT22;7290;50.854;4.354;2022-11-20T09:25:48;8.40;99.90
14411;DHT22;7290;50.854;4.354;2022-11-20T09:28:14;8.30;99.90
14411;DHT22;7290;50.854;4.354;2022-11-20T09:30:40;8.30;99.90
14411;DHT22;7290;50.854;4.354;2022-11-20T09:33:07;8.40;99.90
14411;DHT22;7290;50.854;4.354;2022-11-20T09:35:36;8.50;99.90
14411;DHT22;7290;50.854;4.354;2022-11-20T09:38:05;8.50;99.90
14411;DHT22;7290;50.854;4.354;2022-11-20T09:40:32;8.60;99.90
14411;DHT22;7290;50.854;4.354;2022-11-20T09:43:03;8.60;99.90
14411;DHT22;7290;50.854;4.354;2022-11-20T09:45:39;8.80;99.90
14411;DHT22;7290;50.854;4.354;2022-11-20T09:48:25;8.80;99.90
14411;DHT22;7290;50.854;4.354;2022-11-20T09:50:58;9.00;99.90
14411;DHT22;7290;50.854;4.354;2022-11-20T09:53:35;9.00;99.90
14411;DHT22;7290;50.854;4.354;2022-11-20T09:56:08;9.00;99.90
14411;DHT22;7290;50.854;4.354;2022-11-20T09:58:41;8.90;99.90
14411;DHT22;7290;50.854;4.354;2022-11-20T10:01:12;8.90;99.90
14411;DHT22;7290;50.854;4.354;2022-11-20T10:03:50;9.00;99.90
14411;DHT22;7290;50.854;4.354;2022-11-20T10:06:21;9.00;99.90
14411;DHT22;7290;50.854;4.354;2022-11-20T10:08:58;9.00;99.90
14411;DHT22;7290;50.854;4.354;2022-11-20T10:11:33;9.00;99.90
14411;DHT22;7290;50.854;4.354;2022-11-20T10:14:15;9.00;99.90
14411;DHT22;7290;50.854;4.354;2022-11-20T10:16:46;9.00;99.90
14411;DHT22;7290;50.854;4.354;2022-11-20T10:19:30;9.20;99.90
14411;DHT22;7290;50.854;4.354;2022-11-20T10:22:16;9.30;99.90
14411;DHT22;7290;50.854;4.354;2022-11-20T10:24:53;9.30;99.90
14411;DHT22;7290;50.854;4.354;2022-11-20T10:27:39;9.40;99.90
14411;DHT22;7290;50.854;4.354;2022-11-20T10:30:09;9.40;99.90
14411;DHT22;7290;50.854;4.354;2022-11-20T10:32:39;9.60;99.90
14411;DHT22;7290;50.854;4.354;2022-11-20T10:35:16;9.60;99.90
14411;DHT22;7290;50.854;4.354;2022-11-20T10:37:45;9.80;99.90
14411;DHT22;7290;50.854;4.354;2022-11-20T10:40:21;10.10;99.90
14411;DHT22;7290;50.854;4.354;2022-11-20T10:42:51;10.20;99.90
14411;DHT22;7290;50.854;4.354;2022-11-20T10:45:28;10.40;99.90
14411;DHT22;7290;50.854;4.354;2022-11-20T10:48:14;10.30;99.90
14411;DHT22;7290;50.854;4.354;2022-11-20T10:50:51;10.40;99.90
14411;DHT22;7290;50.854;4.354;2022-11-20T10:53:31;10.50;99.90
14411;DHT22;7290;50.854;4.354;2022-11-20T10:56:05;10.30;99.90
14411;DHT22;7290;50.854;4.354;2022-11-20T10:58:40;10.00;99.90
14411;DHT22;7290;50.854;4.354;2022-11-20T11:01:14;10.00;99.90
14411;DHT22;7290;50.854;4.354;2022-11-20T11:03:42;10.00;99.90
14411;DHT22;7290;50.854;4.354;2022-11-20T11:06:14;10.00;99.90
14411;DHT22;7290;50.854;4.354;2022-11-20T11:08:43;10.00;99.90
14411;DHT22;7290;50.854;4.354;2022-11-20T11:11:20;10.00;99.90
14411;DHT22;7290;50.854;4.354;2022-11-20T11:13:48;10.10;99.90
14411;DHT22;7290;50.854;4.354;2022-11-20T11:16:21;10.00;99.90
14411;DHT22;7290;50.854;4.354;2022-11-20T11:18:47;10.10;99.90
14411;DHT22;7290;50.854;4.354;2022-11-20T11:21:21;10.10;99.90
14411;DHT22;7290;50.854;4.354;2022-11-20T11:23:57;10.00;99.90
14411;DHT22;7290;50.854;4.354;2022-11-20T11:26:24;10.10;99.90
14411;DHT22;7290;50.854;4.354;2022-11-20T11:28:55;10.10;99.90
14411;DHT22;7290;50.854;4.354;2022-11-20T11:31:25;10.00;99.90
14411;DHT22;7290;50.854;4.354;2022-11-20T11:33:51;10.00;99.90
14411;DHT22;7290;50.854;4.354;2022-11-20T11:36:21;10.00;99.90
14411;DHT22;7290;50.854;4.354;2022-11-20T11:38:51;10.10;99.90
14411;DHT22;7290;50.854;4.354;2022-11-20T11:41:21;10.20;99.90
14411;DHT22;7290;50.854;4.354;2022-11-20T11:43:52;10.00;99.90
14411;DHT22;7290;50.854;4.354;2022-11-20T11:46:38;10.00;99.90
14411;DHT22;7290;50.854;4.354;2022-11-20T11:49:16;10.00;99.90
14411;DHT22;7290;50.854;4.354;2022-11-20T11:52:00;9.90;99.90
14411;DHT22;7290;50.854;4.354;2022-11-20T11:54:32;9.80;99.90
14411;DHT22;7290;50.854;4.354;2022-11-20T11:57:04;9.80;99.90
14411;DHT22;7290;50.854;4.354;2022-11-20T11:59:41;9.80;99.90
14411;DHT22;7290;50.854;4.354;2022-11-20T12:02:19;9.80;99.90
14411;DHT22;7290;50.854;4.354;2022-11-20T12:04:53;9.70;99.90
14411;DHT22;7290;50.854;4.354;2022-11-20T12:07:28;9.50;99.90
14411;DHT22;7290;50.854;4.354;2022-11-20T12:09:59;9.60;99.90
14411;DHT22;7290;50.854;4.354;2022-11-20T12:12:31;9.60;99.90
14411;DHT22;7290;50.854;4.354;2022-11-20T12:15:00;9.60;99.90
14411;DHT22;7290;50.854;4.354;2022-11-20T12:17:27;9.60;99.90
14411;DHT22;7290;50.854;4.354;2022-11-20T12:19:54;9.50;99.90
14411;DHT22;7290;50.854;4.354;2022-11-20T12:22:28;9.40;99.90
14411;DHT22;7290;50.854;4.354;2022-11-20T12:25:00;9.40;99.90
14411;DHT22;7290;50.854;4.354;2022-11-20T12:27:47;9.30;99.90
14411;DHT22;7290;50.854;4.354;2022-11-20T12:30:16;9.30;99.90
14411;DHT22;7290;50.854;4.354;2022-11-20T12:35:46;9.30;99.90
14411;DHT22;7290;50.854;4.354;2022-11-20T12:38:37;9.20;99.90
14411;DHT22;7290;50.854;4.354;2022-11-20T12:41:14;9.20;99.90
14411;DHT22;7290;50.854;4.354;2022-11-20T12:44:12;9.20;99.90
14411;DHT22;7290;50.854;4.354;2022-11-20T12:47:10;9.10;99.90
14411;DHT22;7290;50.854;4.354;2022-11-20T12:49:42;9.10;99.90
14411;DHT22;7290;50.854;4.354;2022-11-20T12:52:24;9.20;99.90
14411;DHT22;7290;50.854;4.354;2022-11-20T12:55:11;9.20;99.90
14411;DHT22;7290;50.854;4.354;2022-11-20T12:57:45;9.20;99.90
14411;DHT22;7290;50.854;4.354;2022-11-20T13:00:16;9.30;99.90
14411;DHT22;7290;50.854;4.354;2022-11-20T13:03:09;9.40;99.90
14411;DHT22;7290;50.854;4.354;2022-11-20T13:05:50;9.50;99.90
14411;DHT22;7290;50.854;4.354;2022-11-20T13:08:22;9.40;99.90
14411;DHT22;7290;50.854;4.354;2022-11-20T13:10:55;9.20;99.90
14411;DHT22;7290;50.854;4.354;2022-11-20T13:13:29;9.20;99.90
14411;DHT22;7290;50.854;4.354;2022-11-20T13:16:02;9.30;99.90
14411;DHT22;7290;50.854;4.354;2022-11-20T13:18:35;9.10;99.90
14411;DHT22;7290;50.854;4.354;2022-11-20T13:21:14;9.20;99.90
14411;DHT22;7290;50.854;4.354;2022-11-20T13:23:40;9.20;99.90
14411;DHT22;7290;50.854;4.354;2022-11-20T13:26:19;9.00;99.90
14411;DHT22;7290;50.854;4.354;2022-11-20T13:28:48;8.90;99.90
14411;DHT22;7290;50.854;4.354;2022-11-20T13:31:40;9.10;99.90
14411;DHT22;7290;50.854;4.354;2022-11-20T13:34:12;9.10;99.90
14411;DHT22;7290;50.854;4.354;2022-11-20T13:36:49;9.20;99.90
14411;DHT22;7290;50.854;4.354;2022-11-20T13:39:24;9.20;99.90
14411;DHT22;7290;50.854;4.354;2022-11-20T13:41:55;9.10;99.90
14411;DHT22;7290;50.854;4.354;2022-11-20T13:44:25;9.00;99.90
14411;DHT22;7290;50.854;4.354;2022-11-20T13:46:54;9.00;99.90
14411;DHT22;7290;50.854;4.354;2022-11-20T13:49:25;9.10;99.90
14411;DHT22;7290;50.854;4.354;2022-11-20T13:51:57;9.10;99.90
14411;DHT22;7290;50.854;4.354;2022-11-20T13:55:00;9.10;99.90
14411;DHT22;7290;50.854;4.354;2022-11-20T13:57:48;9.10;99.90
14411;DHT22;7290;50.854;4.354;2022-11-20T14:00:20;9.20;99.90
14411;DHT22;7290;50.854;4.354;2022-11-20T14:02:58;9.20;99.90
14411;DHT22;7290;50.854;4.354;2022-11-20T14:05:25;9.20;99.90
14411;DHT22;7290;50.854;4.354;2022-11-20T14:07:53;9.20;99.90
14411;DHT22;7290;50.854;4.354;2022-11-20T14:10:22;9.20;99.90
14411;DHT22;7290;50.854;4.354;2022-11-20T14:12:49;9.10;99.90
14411;DHT22;7290;50.854;4.354;2022-11-20T14:15:25;9.10;99.90
14411;DHT22;7290;50.854;4.354;2022-11-20T14:17:52;9.20;99.90
14411;DHT22;7290;50.854;4.354;2022-11-20T14:20:18;9.20;99.90
14411;DHT22;7290;50.854;4.354;2022-11-20T14:22:50;9.20;99.90
14411;DHT22;7290;50.854;4.354;2022-11-20T14:25:21;9.20;99.90
14411;DHT22;7290;50.854;4.354;2022-11-20T14:27:51;9.10;99.90
14411;DHT22;7290;50.854;4.354;2022-11-20T14:30:20;9.10;99.90
14411;DHT22;7290;50.854;4.354;2022-11-20T14:32:47;9.20;99.90
14411;DHT22;7290;50.854;4.354;2022-11-20T14:35:20;9.20;99.90
14411;DHT22;7290;50.854;4.354;2022-11-20T14:37:47;9.20;99.90
14411;DHT22;7290;50.854;4.354;2022-11-20T14:40:26;9.30;99.90
14411;DHT22;7290;50.854;4.354;2022-11-20T14:42:54;9.40;99.90
14411;DHT22;7290;50.854;4.354;2022-11-20T14:45:20;9.40;99.90
14411;DHT22;7290;50.854;4.354;2022-11-20T14:47:47;9.40;99.90
14411;DHT22;7290;50.854;4.354;2022-11-20T14:50:18;9.30;99.90
14411;DHT22;7290;50.854;4.354;2022-11-20T14:52:50;9.30;99.90
14411;DHT22;7290;50.854;4.354;2022-11-20T14:55:25;9.30;99.90
14411;DHT22;7290;50.854;4.354;2022-11-20T14:57:56;9.30;99.90
14411;DHT22;7290;50.854;4.354;2022-11-20T15:00:23;9.30;99.90
14411;DHT22;7290;50.854;4.354;2022-11-20T15:02:51;9.40;99.90
14411;DHT22;7290;50.854;4.354;2022-11-20T15:05:19;9.30;99.90
14411;DHT22;7290;50.854;4.354;2022-11-20T15:07:47;9.30;99.90
14411;DHT22;7290;50.854;4.354;2022-11-20T15:10:21;9.40;99.90
14411;DHT22;7290;50.854;4.354;2022-11-20T15:12:49;9.40;99.90
14411;DHT22;7290;50.854;4.354;2022-11-20T15:15:20;9.30;99.90
14411;DHT22;7290;50.854;4.354;2022-11-20T15:17:47;9.30;99.90
14411;DHT22;7290;50.854;4.354;2022-11-20T15:20:15;9.30;99.90
14411;DHT22;7290;50.854;4.354;2022-11-20T15:22:42;9.30;99.90
14411;DHT22;7290;50.854;4.354;2022-11-20T15:25:13;9.40;99.90
14411;DHT22;7290;50.854;4.354;2022-11-20T15:27:39;9.40;99.90
14411;DHT22;7290;50.854;4.354;2022-11-20T15:30:13;9.40;99.90
14411;DHT22;7290;50.854;4.354;2022-11-20T15:32:40;9.50;99.90
14411;DHT22;7290;50.854;4.354;2022-11-20T15:35:07;9.50;99.90
14411;DHT22;7290;50.854;4.354;2022-11-20T15:37:33;9.40;99.90
14411;DHT22;7290;50.854;4.354;2022-11-20T15:40:00;9.50;99.90
14411;DHT22;7290;50.854;4.354;2022-11-20T15:42:27;9.40;99.90
14411;DHT22;7290;50.854;4.354;2022-11-20T15:44:55;9.40;99.90
14411;DHT22;7290;50.854;4.354;2022-11-20T15:47:25;9.40;99.90
14411;DHT22;7290;50.854;4.354;2022-11-20T15:49:53;9.50;99.90
14411;DHT22;7290;50.854;4.354;2022-11-20T15:52:19;9.40;99.90
14411;DHT22;7290;50.854;4.354;2022-11-20T15:54:46;9.40;99.90
14411;DHT22;7290;50.854;4.354;2022-11-20T15:57:12;9.50;99.90
14411;DHT22;7290;50.854;4.354;2022-11-20T15:59:39;9.50;99.90
14411;DHT22;7290;50.854;4.354;2022-11-20T16:02:09;9.50;99.90
14411;DHT22;7290;50.854;4.354;2022-11-20T16:04:35;9.50;99.90
14411;DHT22;7290;50.854;4.354;2022-11-20T16:07:02;9.50;99.90
14411;DHT22;7290;50.854;4.354;2022-11-20T16:09:28;9.50;99.90
14411;DHT22;7290;50.854;4.354;2022-11-20T16:11:54;9.50;99.90
14411;DHT22;7290;50.854;4.354;2022-11-20T16:14:20;9.60;99.90
14411;DHT22;7290;50.854;4.354;2022-11-20T16:17:06;9.50;99.90